Time;durP1;ratioP1;P1;durP2;ratioP2;P2;SDS_P1;SDS_P2;PMS_P1;PMS_P2;Temp;Humidity;BMP_temperature;BMP_pressure;BME280_temperature;BME280_humidity;BME280_pressure;Samples;Min_cycle;Max_cycle;Signal;HPM_P1;HPM_P2
2022/07/31 00:01:50;;;;;;;5.32;3.00;;;17.90;6.20;;;;;;5045278;28;20044;-84
2022/07/31 00:04:18;;;;;;;5.93;3.28;;;17.90;81.50;;;;;;5059252;28;20292;-84
2022/07/31 00:06:44;;;;;;;6.43;3.10;;;17.80;45.50;;;;;;5056344;28;20033;-84
2022/07/31 00:09:10;;;;;;;4.85;3.30;;;17.80;78.60;;;;;;5045776;28;20075;-84
2022/07/31 00:11:36;;;;;;;4.43;3.40;;;17.80;28.10;;;;;;5059477;28;20029;-84
2022/07/31 00:14:01;;;;;;;3.92;3.17;;;17.80;9.40;;;;;;5028691;28;20106;-84
2022/07/31 00:16:27;;;;;;;4.60;3.10;;;17.70;95.40;;;;;;5025711;28;20037;-84
2022/07/31 00:18:53;;;;;;;5.07;2.92;;;17.70;92.30;;;;;;5058152;28;20041;-84
2022/07/31 00:21:21;;;;;;;5.28;2.90;;;17.70;99.90;;;;;;5027815;28;20032;-84
2022/07/31 00:23:47;;;;;;;8.75;3.60;;;17.70;97.70;;;;;;5027208;28;20090;-84
2022/07/31 00:26:12;;;;;;;5.30;2.97;;;17.70;99.90;;;;;;5032614;28;20037;-84
2022/07/31 00:28:38;;;;;;;6.38;3.50;;;17.60;86.20;;;;;;5058398;28;20229;-84
2022/07/31 00:31:04;;;;;;;5.40;2.80;;;17.60;99.90;;;;;;5047908;28;20028;-84
2022/07/31 00:33:29;;;;;;;3.55;3.10;;;17.60;99.90;;;;;;5030393;28;20086;-84
2022/07/31 00:35:55;;;;;;;4.20;2.97;;;17.60;99.90;;;;;;5055190;28;20240;-84
2022/07/31 00:38:21;;;;;;;4.18;2.97;;;17.50;99.90;;;;;;5052248;28;20507;-84
2022/07/31 00:40:52;;;;;;;5.47;3.03;;;17.50;99.90;;;;;;5055300;28;20036;-84
2022/07/31 00:43:18;;;;;;;3.75;3.17;;;17.40;99.90;;;;;;5056549;28;20044;-84
2022/07/31 00:45:44;;;;;;;4.35;3.13;;;17.40;99.90;;;;;;5032532;28;20090;-84
2022/07/31 00:48:10;;;;;;;5.03;3.45;;;17.40;99.90;;;;;;5037665;28;20078;-84
2022/07/31 00:50:36;;;;;;;6.50;3.42;;;17.40;99.90;;;;;;5035062;28;20736;-84
2022/07/31 00:53:02;;;;;;;4.25;3.30;;;17.40;99.90;;;;;;5044874;28;20036;-84
2022/07/31 00:55:28;;;;;;;4.72;3.33;;;17.40;99.90;;;;;;5033827;28;20483;-84
2022/07/31 00:57:53;;;;;;;4.70;3.13;;;17.40;99.90;;;;;;5052977;28;20086;-85
2022/07/31 01:00:19;;;;;;;5.43;3.28;;;17.40;99.90;;;;;;5051674;28;20461;-84
2022/07/31 01:02:45;;;;;;;4.45;3.47;;;17.40;99.90;;;;;;5044025;28;20135;-85
2022/07/31 01:05:10;;;;;;;4.93;3.17;;;17.30;99.90;;;;;;5062158;28;20063;-84
2022/07/31 01:07:36;;;;;;;7.70;3.35;;;17.30;99.90;;;;;;5043090;28;20048;-84
2022/07/31 01:10:07;;;;;;;6.00;3.40;;;17.20;99.90;;;;;;5047824;28;20146;-84
2022/07/31 01:12:40;;;;;;;4.35;3.47;;;17.20;99.90;;;;;;5046914;28;20563;-84
2022/07/31 01:15:08;;;;;;;7.20;3.80;;;17.20;99.90;;;;;;5027859;28;20089;-84
2022/07/31 01:17:35;;;;;;;5.90;3.80;;;17.20;99.90;;;;;;5031797;28;20032;-84
2022/07/31 01:20:02;;;;;;;8.65;4.18;;;17.10;99.90;;;;;;5049906;28;20456;-84
2022/07/31 01:22:51;;;;;;;5.90;3.75;;;17.10;99.90;;;;;;5032159;28;20155;-84
2022/07/31 01:25:41;;;;;;;4.80;3.50;;;17.10;99.90;;;;;;5050823;28;20093;-84
2022/07/31 01:28:37;;;;;;;5.60;3.60;;;17.10;99.90;;;;;;5048528;28;20468;-85
2022/07/31 01:31:10;;;;;;;6.22;3.65;;;17.10;99.90;;;;;;5072760;28;20161;-84
2022/07/31 01:33:45;;;;;;;6.47;3.60;;;17.10;99.90;;;;;;5058280;28;20415;-84
2022/07/31 01:36:25;;;;;;;5.50;3.70;;;17.10;99.90;;;;;;5044051;28;20062;-83
2022/07/31 01:38:56;;;;;;;5.43;3.80;;;17.10;99.90;;;;;;5057196;28;20056;-84
2022/07/31 01:41:26;;;;;;;8.10;4.03;;;17.10;99.90;;;;;;5072528;28;20047;-84
2022/07/31 01:43:55;;;;;;;6.80;4.00;;;17.20;99.90;;;;;;5029852;28;20494;-84
2022/07/31 01:46:26;;;;;;;5.53;4.00;;;17.10;99.90;;;;;;5074894;28;20535;-84
2022/07/31 01:48:54;;;;;;;5.97;3.78;;;17.10;99.90;;;;;;5047572;28;20066;-84
2022/07/31 01:51:22;;;;;;;6.40;4.13;;;17.10;99.90;;;;;;5027858;28;20032;-84
2022/07/31 01:53:48;;;;;;;5.82;3.97;;;17.20;99.90;;;;;;5063380;28;20047;-85
2022/07/31 01:56:17;;;;;;;4.95;3.83;;;17.20;99.90;;;;;;5061403;28;20040;-84
2022/07/31 01:58:44;;;;;;;7.95;3.88;;;17.20;99.90;;;;;;5030855;28;20561;-84
2022/07/31 02:01:12;;;;;;;5.03;3.78;;;17.30;99.90;;;;;;5032796;28;20092;-85
2022/07/31 02:03:39;;;;;;;6.28;4.38;;;17.30;99.90;;;;;;5059082;28;20043;-84
2022/07/31 02:06:08;;;;;;;5.85;4.40;;;17.30;99.90;;;;;;5032660;28;20503;-84
2022/07/31 02:08:35;;;;;;;10.13;5.15;;;17.30;99.90;;;;;;5046903;28;20203;-84
2022/07/31 02:11:02;;;;;;;7.47;5.05;;;17.30;99.90;;;;;;5025806;28;20041;-84
2022/07/31 02:13:28;;;;;;;8.18;4.45;;;17.30;99.90;;;;;;5048510;28;20032;-84
2022/07/31 02:15:56;;;;;;;10.10;4.50;;;17.30;99.90;;;;;;5052407;28;20050;-84
2022/07/31 02:18:23;;;;;;;5.40;4.03;;;17.30;99.90;;;;;;5025222;28;20051;-84
2022/07/31 02:20:50;;;;;;;8.32;4.13;;;17.40;99.90;;;;;;5058257;28;20044;-84
2022/07/31 02:23:17;;;;;;;7.20;3.97;;;17.40;99.90;;;;;;5069311;28;20037;-83
2022/07/31 02:25:45;;;;;;;6.68;3.63;;;17.50;99.90;;;;;;5048997;28;20162;-84
2022/07/31 02:28:14;;;;;;;6.80;3.67;;;17.40;99.90;;;;;;5044946;28;20258;-84
2022/07/31 02:30:43;;;;;;;9.30;5.00;;;17.40;99.90;;;;;;5063047;28;20590;-85
2022/07/31 02:33:13;;;;;;;6.18;3.92;;;17.50;99.90;;;;;;5031821;28;20073;-84
2022/07/31 02:35:39;;;;;;;7.03;3.70;;;17.50;99.90;;;;;;5068300;28;20122;-84
2022/07/31 02:38:07;;;;;;;7.80;4.25;;;17.50;96.60;;;;;;5032684;28;20051;-84
2022/07/31 02:40:34;;;;;;;5.88;3.80;;;17.50;99.90;;;;;;5064046;28;20036;-85
2022/07/31 02:43:00;;;;;;;4.82;3.95;;;17.50;92.00;;;;;;5063219;28;20107;-84
2022/07/31 02:45:26;;;;;;;6.55;4.38;;;17.50;25.20;;;;;;5051496;28;20052;-84
2022/07/31 02:47:53;;;;;;;6.65;4.40;;;17.60;31.80;;;;;;5052403;28;20143;-84
2022/07/31 02:50:19;;;;;;;5.03;3.70;;;17.60;43.10;;;;;;5033860;28;20518;-84
2022/07/31 02:52:45;;;;;;;5.45;3.65;;;17.50;96.10;;;;;;5046669;28;20044;-84
2022/07/31 02:55:11;;;;;;;7.65;3.58;;;17.50;75.10;;;;;;5033081;28;20040;-84
2022/07/31 02:57:36;;;;;;;5.35;3.90;;;17.60;39.40;;;;;;5031239;28;20040;-84
2022/07/31 03:00:25;;;;;;;9.60;4.97;;;17.50;99.90;;;;;;5047672;28;20341;-85
2022/07/31 03:02:53;;;;;;;8.45;4.55;;;17.50;92.80;;;;;;5038538;28;20151;-84
2022/07/31 03:05:22;;;;;;;4.68;3.72;;;17.50;45.80;;;;;;5035996;28;20044;-84
2022/07/31 03:07:47;;;;;;;4.05;3.33;;;17.50;34.10;;;;;;5045385;28;20037;-84
2022/07/31 03:10:13;;;;;;;6.55;3.80;;;17.40;56.10;;;;;;5049864;28;20042;-84
2022/07/31 03:12:41;;;;;;;5.10;3.85;;;17.50;55.60;;;;;;5051529;28;20035;-85
2022/07/31 03:15:13;;;;;;;5.60;3.53;;;17.40;97.50;;;;;;5032583;28;20050;-84
2022/07/31 03:17:40;;;;;;;5.20;3.47;;;17.50;75.10;;;;;;5052496;28;20468;-84
2022/07/31 03:20:07;;;;;;;4.85;3.13;;;17.50;27.80;;;;;;5047077;28;20042;-84
2022/07/31 03:22:33;;;;;;;6.97;3.42;;;17.40;36.30;;;;;;5068804;28;20041;-84
2022/07/31 03:25:00;;;;;;;4.38;3.30;;;17.40;7.20;;;;;;5058589;28;20123;-84
2022/07/31 03:27:26;;;;;;;3.90;3.17;;;17.40;32.70;;;;;;5035473;28;20657;-84
2022/07/31 03:29:53;;;;;;;4.53;3.80;;;17.40;38.00;;;;;;5035030;28;20111;-84
2022/07/31 03:32:19;;;;;;;5.32;4.00;;;17.40;34.30;;;;;;5076111;28;20208;-84
2022/07/31 03:34:45;;;;;;;5.60;4.18;;;17.30;48.70;;;;;;5049092;28;20052;-84
2022/07/31 03:37:11;;;;;;;7.40;3.88;;;17.30;32.00;;;;;;5062014;28;20125;-85
2022/07/31 03:39:37;;;;;;;7.63;3.53;;;17.30;80.30;;;;;;5048282;28;20610;-84
2022/07/31 03:42:03;;;;;;;5.47;3.63;;;17.30;56.10;;;;;;5029261;28;20111;-84
2022/07/31 03:44:31;;;;;;;3.95;3.28;;;17.20;17.80;;;;;;5050337;28;20048;-84
2022/07/31 03:46:58;;;;;;;5.75;4.00;;;17.20;4.70;;;;;;5033556;28;20056;-85
2022/07/31 03:49:25;;;;;;;7.32;4.00;;;17.20;59.30;;;;;;5063470;28;20110;-84
2022/07/31 03:51:51;;;;;;;5.97;3.70;;;17.10;3.20;;;;;;5057064;28;20494;-84
2022/07/31 03:54:16;;;;;;;4.00;3.60;;;17.00;13.20;;;;;;5034507;28;20216;-84
2022/07/31 03:56:46;;;;;;;5.32;3.53;;;17.00;48.20;;;;;;5067608;28;20040;-84
2022/07/31 03:59:14;;;;;;;6.68;3.65;;;17.00;80.70;;;;;;5047187;28;20100;-84
2022/07/31 04:01:40;;;;;;;5.22;3.30;;;16.90;99.90;;;;;;5051832;28;20487;-84
2022/07/31 04:04:06;;;;;;;5.70;3.60;;;16.90;96.50;;;;;;5033303;28;20048;-84
2022/07/31 04:06:32;;;;;;;4.65;3.60;;;16.90;87.50;;;;;;5051821;28;20561;-85
2022/07/31 04:09:00;;;;;;;4.45;3.33;;;16.90;99.90;;;;;;5059063;28;20024;-84
2022/07/31 04:11:27;;;;;;;3.72;3.42;;;16.90;99.90;;;;;;5061242;28;20117;-84
2022/07/31 04:13:53;;;;;;;4.55;3.28;;;16.90;98.60;;;;;;5078720;28;20188;-85
2022/07/31 04:16:19;;;;;;;4.50;3.42;;;17.00;77.10;;;;;;5035382;28;20044;-84
2022/07/31 04:18:44;;;;;;;4.72;3.30;;;17.00;95.40;;;;;;5048967;28;20040;-84
2022/07/31 04:21:10;;;;;;;4.63;2.95;;;17.00;97.30;;;;;;5036086;28;20143;-84
2022/07/31 04:23:36;;;;;;;4.32;3.20;;;17.00;99.90;;;;;;5045089;28;20044;-84
2022/07/31 04:26:02;;;;;;;4.75;2.90;;;17.10;88.60;;;;;;5050841;28;20036;-84
2022/07/31 04:28:28;;;;;;;5.13;3.15;;;17.10;99.90;;;;;;5074880;28;20042;-84
2022/07/31 04:30:53;;;;;;;5.50;3.67;;;17.20;69.20;;;;;;5057397;28;20363;-84
2022/07/31 04:33:19;;;;;;;12.77;7.32;;;17.30;36.80;;;;;;5051739;28;20037;-85
2022/07/31 04:35:45;;;;;;;9.90;5.18;;;17.40;39.60;;;;;;5061291;28;20306;-84
2022/07/31 04:38:11;;;;;;;6.88;3.80;;;17.40;40.90;;;;;;5030866;28;20055;-84
2022/07/31 04:40:37;;;;;;;5.40;3.60;;;17.50;99.90;;;;;;5047586;28;20147;-85
2022/07/31 04:43:03;;;;;;;6.55;3.83;;;17.60;73.50;;;;;;5060620;28;20113;-84
2022/07/31 04:45:29;;;;;;;8.10;3.42;;;17.60;73.90;;;;;;5047302;28;20435;-84
2022/07/31 04:48:02;;;;;;;6.18;3.63;;;17.70;5.20;;;;;;5066333;28;20129;-85
2022/07/31 04:50:28;;;;;;;7.75;3.25;;;17.70;26.90;;;;;;5078552;28;20643;-84
2022/07/31 04:52:53;;;;;;;5.93;3.65;;;17.70;9.80;;;;;;5028333;28;20111;-84
2022/07/31 04:55:19;;;;;;;5.50;3.60;;;17.80;1.00;;;;;;5055289;28;20079;-85
2022/07/31 04:57:45;;;;;;;6.05;3.60;;;17.90;1.00;;;;;;5060905;28;20522;-85
2022/07/31 05:00:11;;;;;;;5.95;3.60;;;17.80;1.00;;;;;;5030630;28;20036;-84
2022/07/31 05:02:37;;;;;;;7.38;3.42;;;17.80;1.00;;;;;;5043368;28;20036;-84
2022/07/31 05:05:06;;;;;;;4.90;3.65;;;17.90;1.00;;;;;;5046400;28;20028;-85
2022/07/31 05:07:33;;;;;;;6.35;3.55;;;17.90;1.00;;;;;;5048237;28;20333;-84
2022/07/31 05:09:59;;;;;;;6.18;3.90;;;17.90;1.00;;;;;;5048753;28;20042;-84
2022/07/31 05:12:24;;;;;;;5.63;4.15;;;18.00;1.00;;;;;;5046654;28;20033;-84
2022/07/31 05:14:50;;;;;;;4.80;3.58;;;18.00;1.00;;;;;;5051967;28;20093;-85
2022/07/31 05:17:16;;;;;;;5.20;4.00;;;18.10;1.00;;;;;;5044344;28;20071;-84
2022/07/31 05:19:42;;;;;;;4.40;3.67;;;18.10;1.00;;;;;;5033346;28;20049;-84
2022/07/31 05:22:08;;;;;;;8.65;3.92;;;18.10;1.00;;;;;;5035566;28;20050;-84
2022/07/31 05:24:34;;;;;;;5.47;3.85;;;18.20;1.00;;;;;;5056138;28;20036;-85
2022/07/31 05:27:01;;;;;;;5.90;4.00;;;18.20;1.00;;;;;;5077227;28;20207;-84
2022/07/31 05:29:26;;;;;;;5.45;3.92;;;18.20;1.00;;;;;;5061072;28;20241;-85
2022/07/31 05:31:52;;;;;;;5.85;4.07;;;18.40;1.00;;;;;;5051809;28;20515;-84
2022/07/31 05:34:18;;;;;;;5.53;4.13;;;18.40;1.00;;;;;;5045700;28;20036;-85
2022/07/31 05:36:43;;;;;;;6.90;4.18;;;18.40;1.00;;;;;;5056120;28;20478;-84
2022/07/31 05:39:11;;;;;;;7.55;4.10;;;18.50;1.00;;;;;;5047230;28;20046;-85
2022/07/31 05:41:37;;;;;;;6.03;4.13;;;18.40;1.00;;;;;;5064764;28;20395;-85
2022/07/31 05:44:03;;;;;;;4.85;4.05;;;18.40;1.00;;;;;;5054382;28;20407;-85
2022/07/31 05:46:31;;;;;;;5.57;4.22;;;18.40;1.00;;;;;;5057360;28;20055;-85
2022/07/31 05:48:57;;;;;;;5.75;4.35;;;18.40;1.00;;;;;;5035536;28;20497;-84
2022/07/31 05:51:23;;;;;;;5.75;4.40;;;18.40;1.00;;;;;;5075382;28;20178;-85
2022/07/31 05:53:48;;;;;;;6.78;4.15;;;18.50;1.00;;;;;;5045941;28;20396;-84
2022/07/31 05:56:14;;;;;;;5.07;4.03;;;18.60;1.00;;;;;;5043753;28;20047;-85
2022/07/31 05:58:40;;;;;;;7.63;4.60;;;18.60;1.00;;;;;;5056119;28;20036;-84
2022/07/31 06:01:05;;;;;;;6.90;4.22;;;18.60;1.00;;;;;;5039906;28;20032;-85
2022/07/31 06:03:34;;;;;;;4.72;4.22;;;18.70;1.00;;;;;;5075050;28;20034;-84
2022/07/31 06:06:04;;;;;;;7.85;4.43;;;18.70;1.00;;;;;;5051291;28;20407;-85
2022/07/31 06:08:30;;;;;;;6.45;4.22;;;18.80;1.00;;;;;;5074703;28;20032;-85
2022/07/31 06:10:57;;;;;;;10.25;5.07;;;18.80;1.00;;;;;;5082014;28;20047;-84
2022/07/31 06:13:24;;;;;;;6.25;4.50;;;18.90;1.00;;;;;;5053869;28;20111;-85
2022/07/31 06:15:50;;;;;;;6.57;4.25;;;19.00;1.00;;;;;;5084451;28;20074;-84
2022/07/31 06:18:19;;;;;;;7.65;4.95;;;19.10;1.00;;;;;;5061469;28;20072;-85
2022/07/31 06:20:45;;;;;;;5.85;4.47;;;19.10;1.00;;;;;;5037906;28;20212;-84
2022/07/31 06:23:10;;;;;;;6.40;4.35;;;19.20;1.00;;;;;;5068046;28;20116;-85
2022/07/31 06:25:36;;;;;;;6.72;5.03;;;19.30;1.00;;;;;;5061050;28;20044;-85
2022/07/31 06:28:02;;;;;;;7.78;4.60;;;19.20;1.00;;;;;;5049756;28;20074;-84
2022/07/31 06:30:27;;;;;;;6.82;4.40;;;19.40;99.90;;;;;;5078491;28;20045;-85
2022/07/31 06:32:53;;;;;;;6.80;4.78;;;19.40;99.90;;;;;;5079618;28;20028;-84
2022/07/31 06:35:22;;;;;;;5.22;4.68;;;19.40;99.90;;;;;;5036614;28;20139;-85
2022/07/31 06:37:47;;;;;;;6.88;4.90;;;19.60;1.00;;;;;;5033861;28;20062;-85
2022/07/31 06:40:13;;;;;;;7.05;4.95;;;19.70;99.90;;;;;;5073290;28;20277;-84
2022/07/31 06:42:39;;;;;;;7.38;4.90;;;19.70;99.90;;;;;;5037788;28;20115;-85
2022/07/31 06:45:05;;;;;;;6.15;4.93;;;19.80;99.90;;;;;;5071311;28;20041;-85
2022/07/31 06:47:31;;;;;;;4.82;4.28;;;19.80;99.90;;;;;;5066625;28;20056;-85
2022/07/31 06:49:57;;;;;;;8.00;5.03;;;19.90;99.90;;;;;;5059078;28;20059;-85
2022/07/31 06:52:23;;;;;;;5.35;4.85;;;19.80;99.90;;;;;;5035397;28;20036;-85
2022/07/31 06:54:49;;;;;;;7.07;4.50;;;19.90;99.90;;;;;;5034099;28;20034;-85
2022/07/31 06:57:15;;;;;;;5.35;4.85;;;20.00;99.90;;;;;;5087954;28;20559;-85
2022/07/31 06:59:40;;;;;;;6.22;4.75;;;20.10;99.90;;;;;;5046199;28;20799;-85
2022/07/31 07:02:07;;;;;;;6.28;4.80;;;19.90;99.90;;;;;;5048287;28;20147;-84
2022/07/31 07:04:33;;;;;;;6.00;4.65;;;20.10;99.90;;;;;;5067370;28;20039;-85
2022/07/31 07:06:58;;;;;;;5.30;4.20;;;20.20;99.90;;;;;;5036472;28;20044;-86
2022/07/31 07:09:24;;;;;;;7.10;4.90;;;20.40;99.90;;;;;;5031360;28;20407;-84
2022/07/31 07:11:50;;;;;;;6.15;4.40;;;20.30;99.90;;;;;;5061937;28;20036;-85
2022/07/31 07:14:18;;;;;;;5.53;4.60;;;20.40;99.90;;;;;;5057316;28;20126;-85
2022/07/31 07:16:44;;;;;;;5.82;4.65;;;20.30;99.90;;;;;;5031872;28;20036;-85
2022/07/31 07:19:10;;;;;;;6.32;4.25;;;20.30;99.90;;;;;;5052024;28;20104;-84
2022/07/31 07:21:36;;;;;;;7.53;4.43;;;20.40;99.90;;;;;;5061788;28;20041;-85
2022/07/31 07:24:02;;;;;;;6.68;4.90;;;20.50;99.90;;;;;;5023592;28;20041;-85
2022/07/31 07:26:29;;;;;;;7.03;4.95;;;20.50;99.90;;;;;;5058279;28;20048;-85
2022/07/31 07:28:54;;;;;;;6.65;4.72;;;20.70;99.90;;;;;;5022533;28;20040;-85
2022/07/31 07:31:21;;;;;;;7.15;5.43;;;20.70;99.90;;;;;;5039397;28;20330;-85
2022/07/31 07:33:47;;;;;;;7.15;5.28;;;20.80;99.90;;;;;;5056261;28;20595;-85
2022/07/31 07:36:13;;;;;;;6.20;5.60;;;20.80;99.90;;;;;;5055887;28;20128;-85
2022/07/31 07:38:39;;;;;;;5.93;5.40;;;20.90;99.90;;;;;;5025586;28;20036;-86
2022/07/31 07:41:04;;;;;;;8.32;5.70;;;21.00;99.90;;;;;;5071994;28;20223;-84
2022/07/31 07:43:30;;;;;;;7.75;5.70;;;21.10;99.90;;;;;;5040017;28;20032;-85
2022/07/31 07:45:56;;;;;;;7.07;5.32;;;21.30;99.90;;;;;;5055794;28;20534;-85
2022/07/31 07:48:21;;;;;;;6.85;5.60;;;21.40;99.90;;;;;;5053606;28;20069;-85
2022/07/31 07:50:47;;;;;;;6.72;5.55;;;21.50;99.90;;;;;;5054721;28;20056;-85
2022/07/31 07:53:13;;;;;;;7.40;5.32;;;21.50;99.90;;;;;;5029957;28;20047;-85
2022/07/31 07:55:39;;;;;;;6.80;5.13;;;21.70;99.90;;;;;;5046382;28;20402;-85
2022/07/31 07:58:05;;;;;;;9.02;5.93;;;21.90;99.90;;;;;;5056540;28;20040;-87
2022/07/31 08:00:30;;;;;;;6.78;5.80;;;22.10;99.90;;;;;;5045727;28;20047;-85
2022/07/31 08:02:56;;;;;;;7.90;5.72;;;22.20;99.90;;;;;;5048309;28;20075;-86
2022/07/31 08:05:22;;;;;;;7.60;6.00;;;22.30;99.90;;;;;;5043525;28;20064;-85
2022/07/31 08:07:47;;;;;;;8.15;5.90;;;22.40;99.90;;;;;;5057758;28;20037;-85
2022/07/31 08:10:17;;;;;;;8.20;5.95;;;22.50;99.90;;;;;;5048462;28;20452;-85
2022/07/31 08:12:44;;;;;;;7.95;6.20;;;22.60;99.90;;;;;;5030416;28;20032;-86
2022/07/31 08:15:10;;;;;;;10.20;6.03;;;22.80;99.90;;;;;;5073893;28;20581;-85
2022/07/31 08:17:35;;;;;;;10.63;6.03;;;23.00;99.90;;;;;;5059376;28;20040;-85
2022/07/31 08:20:01;;;;;;;7.00;6.30;;;22.70;99.90;;;;;;5030716;28;20085;-85
2022/07/31 08:22:27;;;;;;;11.77;6.80;;;22.80;99.90;;;;;;5048540;28;20343;-85
2022/07/31 08:24:53;;;;;;;6.45;5.80;;;22.80;99.90;;;;;;5045274;28;20100;-86
2022/07/31 08:27:24;;;;;;;8.60;5.88;;;22.70;99.90;;;;;;5032798;28;20028;-86
2022/07/31 08:29:51;;;;;;;6.70;5.05;;;22.60;99.90;;;;;;5060680;28;20142;-85
2022/07/31 08:32:18;;;;;;;6.00;4.90;;;22.70;99.90;;;;;;5032381;28;20048;-86
2022/07/31 08:34:44;;;;;;;8.98;5.78;;;22.60;99.90;;;;;;5043489;28;20145;-86
2022/07/31 08:37:09;;;;;;;6.38;5.38;;;22.60;99.90;;;;;;5044892;28;20365;-86
2022/07/31 08:39:36;;;;;;;9.70;5.40;;;22.60;99.90;;;;;;5047978;28;20042;-85
2022/07/31 08:42:06;;;;;;;8.85;6.10;;;22.50;99.90;;;;;;5076713;28;20044;-86
2022/07/31 08:44:35;;;;;;;10.23;6.10;;;22.30;99.90;;;;;;5062012;28;20049;-86
2022/07/31 08:47:04;;;;;;;9.95;6.32;;;22.10;99.90;;;;;;5046784;28;20050;-86
2022/07/31 08:49:35;;;;;;;9.35;6.45;;;22.20;99.90;;;;;;5058219;28;20033;-86
2022/07/31 08:52:01;;;;;;;7.40;5.63;;;22.00;99.90;;;;;;5048360;28;20040;-86
2022/07/31 08:54:28;;;;;;;8.23;5.78;;;22.10;99.90;;;;;;5066681;28;20540;-86
2022/07/31 08:56:53;;;;;;;8.05;6.32;;;21.90;1.00;;;;;;5074452;28;20080;-87
2022/07/31 08:59:22;;;;;;;7.78;6.75;;;21.90;1.00;;;;;;5022538;28;20068;-87
2022/07/31 09:01:49;;;;;;;8.13;7.32;;;21.80;1.00;;;;;;5054180;28;20462;-86
2022/07/31 09:04:14;;;;;;;9.98;7.30;;;21.70;1.00;;;;;;5039062;28;20481;-87
2022/07/31 09:06:40;;;;;;;8.65;7.30;;;21.70;1.00;;;;;;5040553;28;20033;-86
2022/07/31 09:09:06;;;;;;;10.95;7.35;;;21.50;1.00;;;;;;5034768;28;20033;-87
2022/07/31 09:11:32;;;;;;;9.70;6.82;;;21.50;99.90;;;;;;5064332;28;20499;-87
2022/07/31 09:14:01;;;;;;;8.25;7.28;;;21.40;99.90;;;;;;5056796;28;20084;-87
2022/07/31 09:16:29;;;;;;;7.88;7.07;;;21.50;99.90;;;;;;5035813;28;20041;-87
2022/07/31 09:19:00;;;;;;;8.82;7.18;;;21.60;99.90;;;;;;5041663;28;20064;-86
2022/07/31 09:21:36;;;;;;;10.32;7.68;;;21.60;99.90;;;;;;5054599;28;20048;-86
2022/07/31 09:24:02;;;;;;;9.70;7.90;;;21.50;99.90;;;;;;5056247;28;20033;-85
2022/07/31 09:26:35;;;;;;;8.45;7.28;;;21.70;99.90;;;;;;5036829;28;20500;-86
2022/07/31 09:29:07;;;;;;;10.35;7.78;;;21.80;99.90;;;;;;5052712;28;20041;-86
2022/07/31 09:31:33;;;;;;;9.27;7.35;;;21.80;99.90;;;;;;5046242;28;20103;-86
2022/07/31 09:34:00;;;;;;;11.00;8.15;;;21.70;99.90;;;;;;5037326;28;20453;-85
2022/07/31 09:36:27;;;;;;;11.27;8.55;;;21.80;1.00;;;;;;5014573;28;20497;-88
2022/07/31 09:38:55;;;;;;;11.48;8.15;;;21.60;1.00;;;;;;5057586;28;20089;-87
2022/07/31 09:41:22;;;;;;;10.55;9.48;;;21.60;1.00;;;;;;5048097;28;20618;-86
2022/07/31 09:44:01;;;;;;;13.40;9.50;;;21.50;3.10;;;;;;5037736;28;20094;-85
2022/07/31 09:46:42;;;;;;;11.50;9.05;;;21.50;1.00;;;;;;5041849;28;20521;-86
2022/07/31 09:49:08;;;;;;;11.55;9.15;;;21.40;1.00;;;;;;5059927;28;20051;-86
2022/07/31 09:51:41;;;;;;;14.50;9.70;;;21.40;83.10;;;;;;5046290;28;20351;-86
2022/07/31 09:54:21;;;;;;;13.02;9.50;;;21.30;99.90;;;;;;5051311;28;20034;-86
2022/07/31 09:56:48;;;;;;;12.00;9.90;;;21.30;99.90;;;;;;5035533;28;20346;-87
2022/07/31 09:59:15;;;;;;;12.45;9.38;;;21.20;99.90;;;;;;5039301;28;20030;-87
2022/07/31 10:01:42;;;;;;;12.88;10.00;;;21.00;99.90;;;;;;5053008;28;20048;-87
2022/07/31 10:04:09;;;;;;;13.18;10.10;;;21.00;99.90;;;;;;5037954;28;20038;-88
2022/07/31 10:06:36;;;;;;;12.07;10.77;;;21.10;99.90;;;;;;5004429;28;20037;-87
2022/07/31 10:09:04;;;;;;;16.33;11.18;;;21.00;99.90;;;;;;5049321;28;20041;-87
2022/07/31 10:11:31;;;;;;;12.73;11.27;;;21.10;99.90;;;;;;5061696;28;20125;-86
2022/07/31 10:14:00;;;;;;;14.25;11.05;;;21.20;99.90;;;;;;5041243;28;20033;-86
2022/07/31 10:16:31;;;;;;;15.63;11.75;;;21.40;99.90;;;;;;5058837;28;20160;-86
2022/07/31 10:18:59;;;;;;;14.77;12.30;;;21.40;99.90;;;;;;5014371;28;20102;-86
2022/07/31 10:21:32;;;;;;;16.35;12.43;;;21.30;99.90;;;;;;5050492;28;20494;-85
2022/07/31 10:24:01;;;;;;;15.75;12.93;;;21.50;99.90;;;;;;5011039;28;20074;-86
2022/07/31 10:26:29;;;;;;;13.27;11.70;;;21.50;99.90;;;;;;5031476;28;20061;-87
2022/07/31 10:28:56;;;;;;;13.80;12.20;;;21.50;99.90;;;;;;5027214;28;20430;-87
2022/07/31 10:31:22;;;;;;;13.32;11.95;;;21.50;99.90;;;;;;5009764;28;20512;-86
2022/07/31 10:33:48;;;;;;;14.82;12.15;;;21.50;99.90;;;;;;5022376;28;20092;-87
2022/07/31 10:36:20;;;;;;;15.90;11.93;;;21.50;99.90;;;;;;5014095;28;20052;-86
2022/07/31 10:39:13;;;;;;;15.70;12.25;;;21.60;99.90;;;;;;5058815;28;20048;-88
2022/07/31 10:42:05;;;;;;;13.52;11.80;;;21.40;99.90;;;;;;5028097;28;20045;-88
2022/07/31 10:44:40;;;;;;;13.32;11.98;;;21.50;99.90;;;;;;5019775;28;20132;-87
2022/07/31 10:47:12;;;;;;;;;;;21.50;99.90;;;;;;5061560;28;20481;-88
2022/07/31 10:49:44;;;;;;;15.27;12.30;;;21.40;99.90;;;;;;5084249;28;19916;-88
2022/07/31 10:52:10;;;;;;;16.10;12.40;;;21.40;99.90;;;;;;5037560;28;20416;-87
2022/07/31 10:54:45;;;;;;;19.27;13.20;;;21.40;99.90;;;;;;5036738;28;20965;-87
2022/07/31 10:57:25;;;;;;;16.05;12.25;;;21.50;99.90;;;;;;5035599;28;20044;-87
2022/07/31 10:59:52;;;;;;;14.75;12.63;;;21.40;99.90;;;;;;5056474;28;20048;-87
2022/07/31 11:02:32;;;;;;;15.85;12.20;;;21.40;99.90;;;;;;5035824;28;20045;-87
2022/07/31 11:05:14;;;;;;;15.05;13.18;;;21.40;99.90;;;;;;5041169;28;20076;-88
2022/07/31 11:07:44;;;;;;;14.07;12.43;;;21.50;99.90;;;;;;5058316;28;20230;-88
2022/07/31 11:10:10;;;;;;;13.63;12.18;;;21.40;99.90;;;;;;5030753;28;20128;-89
2022/07/31 11:12:35;;;;;;;15.57;13.10;;;21.40;99.90;;;;;;5070516;28;20096;-88
2022/07/31 11:15:01;;;;;;;14.32;12.32;;;21.30;99.90;;;;;;5032808;28;20512;-88
2022/07/31 11:17:37;;;;;;;15.00;13.13;;;21.20;99.90;;;;;;5064010;28;20051;-87
2022/07/31 11:20:03;;;;;;;14.60;13.00;;;21.20;99.90;;;;;;5064397;28;20461;-90
2022/07/31 11:22:29;;;;;;;14.98;11.98;;;21.20;99.90;;;;;;5035902;28;20377;-89
2022/07/31 11:24:59;;;;;;;17.23;13.55;;;21.30;1.00;;;;;;5035326;28;20228;-89
2022/07/31 11:27:32;;;;;;;16.80;12.40;;;21.30;99.90;;;;;;5045143;28;20044;-89
2022/07/31 11:30:06;;;;;;;14.70;12.35;;;21.10;99.90;;;;;;5060423;28;20045;-89
2022/07/31 11:32:32;;;;;;;13.77;12.05;;;21.00;99.90;;;;;;5024043;28;20032;-87
2022/07/31 11:34:57;;;;;;;12.93;11.63;;;20.90;99.90;;;;;;5022557;28;20454;-88
2022/07/31 11:37:31;;;;;;;15.50;12.85;;;20.70;99.90;;;;;;5059398;28;20484;-90
2022/07/31 11:39:57;;;;;;;14.88;12.07;;;20.80;99.90;;;;;;5054967;28;20116;-89
2022/07/31 11:42:26;;;;;;;14.95;12.57;;;20.80;99.90;;;;;;5042309;28;20218;-90
2022/07/31 11:44:59;;;;;;;18.88;14.93;;;20.70;1.00;;;;;;5043581;28;20132;-89
2022/07/31 11:47:36;;;;;;;16.05;13.80;;;20.60;1.00;;;;;;5074870;28;20534;-89
2022/07/31 11:50:04;;;;;;;15.88;14.07;;;20.60;1.00;;;;;;5038349;28;20029;-90
2022/07/31 11:52:30;;;;;;;15.30;13.88;;;20.60;1.00;;;;;;5026438;28;20068;-89
2022/07/31 11:55:07;;;;;;;16.42;14.82;;;20.50;1.00;;;;;;5057483;28;20517;-89
2022/07/31 11:57:33;;;;;;;15.43;13.93;;;20.40;1.00;;;;;;5046740;28;20047;-90
2022/07/31 12:00:12;;;;;;;16.50;14.85;;;20.40;18.40;;;;;;5029154;28;20033;-91
2022/07/31 12:02:43;;;;;;;17.35;14.75;;;20.30;28.50;;;;;;5055842;28;20506;-90
2022/07/31 12:05:12;;;;;;;17.35;15.55;;;20.30;63.00;;;;;;5062627;28;20048;-88
2022/07/31 12:07:42;;;;;;;15.50;13.93;;;20.20;38.50;;;;;;5077131;28;20094;-91
2022/07/31 12:10:10;;;;;;;16.98;14.38;;;20.10;51.70;;;;;;5042788;28;20051;-89
2022/07/31 12:12:36;;;;;;;16.48;14.68;;;20.20;46.70;;;;;;5029050;28;20041;-90
2022/07/31 12:15:19;;;;;;;17.02;13.98;;;20.20;37.00;;;;;;5056287;28;20040;-90
2022/07/31 12:17:58;;;;;;;14.60;13.13;;;20.30;72.30;;;;;;5046530;28;20071;-88
2022/07/31 12:20:24;;;;;;;15.13;13.63;;;20.10;1.00;;;;;;5064303;28;20037;-88
2022/07/31 12:23:00;;;;;;;17.02;14.13;;;20.10;58.90;;;;;;5055466;28;20044;-89
2022/07/31 12:25:26;;;;;;;15.73;13.70;;;20.10;60.00;;;;;;5066457;28;20054;-89
2022/07/31 12:27:53;;;;;;;15.85;14.25;;;20.20;72.80;;;;;;5058786;28;20124;-88
2022/07/31 12:30:21;;;;;;;15.65;13.93;;;20.30;86.50;;;;;;5050908;28;20028;-89
2022/07/31 12:32:47;;;;;;;16.58;14.25;;;20.20;96.20;;;;;;5036281;28;20036;-89
2022/07/31 12:35:13;;;;;;;14.07;12.68;;;20.10;61.30;;;;;;5032026;28;20045;-88
2022/07/31 12:37:46;;;;;;;16.58;14.10;;;20.30;99.90;;;;;;5062064;28;20037;-88
2022/07/31 12:40:28;;;;;;;17.75;14.85;;;20.20;97.00;;;;;;5060802;28;21948;-88
2022/07/31 12:42:54;;;;;;;16.02;14.35;;;20.20;99.90;;;;;;5062145;28;20561;-88
2022/07/31 12:45:37;;;;;;;15.48;13.88;;;20.00;99.90;;;;;;5051584;28;20220;-88
2022/07/31 12:48:03;;;;;;;16.90;15.00;;;20.20;99.90;;;;;;5047124;28;20141;-88